Flight Track Log - Related Links

Times and Time Zones

All times are in EST time to prevent confusion due to time zone crossing. See the N3H flight status page for this flight to view local times or setup timezone preferences in your user account.

Time Position Orientation Groundspeed Altitude Reporting Facility
EST Latitude Longitude Course Direction KTS MPH feet Rate Location/Type
Sat 01:02:01 AM 26.1894 -81.5333 90° East 288 331 9,000  Level Miami Center
Sat 01:02:59 AM 26.1900 -81.4453 90° East 288 331 7,800 -1,017 Descending Miami Center
Sat 01:03:59 AM 26.1906 -81.3619 90° East 288 331 7,000 -400 Descending Miami Center
Sat 01:04:59 AM 26.1892 -81.2764 91° East 281 323 7,000  Level Miami Center
Sat 01:05:44 AM 26.1847 -81.2136 94° East 268 308 7,000  Level Miami Center
Sat 01:06:00 AM 26.1853 -81.1953 88° East 271 312 7,000 -113 Level Miami Center
Sat 01:06:37 AM 26.1825 -81.1419 93° East 262 302 6,900  Descending Miami Center
Sat 01:06:59 AM 26.1856 -81.1142 83° East 261 300 7,000 98 Climbing Miami Center
Sat 01:07:38 AM 26.1831 -81.0539 93° East 265 305 7,000  Level Miami Center
Sat 01:07:59 AM 26.1839 -81.0261 88° East 261 300 7,000 -194 Level Miami Center
Sat 01:08:40 AM 26.1833 -80.9706 91° East 270 311 6,800 -484 Descending Miami Center
Sat 01:09:01 AM 26.1881 -80.9475 77° East 261 300 6,500 -1,082 Descending Miami Center
Sat 01:09:41 AM 26.1836 -80.8872 95° East 270 311 5,700 -1,034 Descending Miami Center
Sat 01:09:59 AM 26.1864 -80.8667 81° East 261 300 5,500 -985 Descending Miami Center
Sat 01:10:48 AM 26.1839 -80.7994 92° East 263 303 4,600 -984 Descending Miami Center
Sat 01:11:00 AM 26.1864 -80.7856 79° East 261 300 4,500 -982 Descending Miami Center
Sat 01:11:43 AM 26.1836 -80.7275 93° East 254 292 3,700 -1,017 Descending Miami Center
Sat 01:11:59 AM 26.1883 -80.7092 74° East 255 293 3,500 -1,031 Descending Miami Center
Sat 01:12:47 AM 26.1839 -80.6467 95° East 248 285 2,600 -1,048 Descending Miami Center
Sat 01:13:02 AM 26.1883 -80.6328 70° East 250 288 2,400 -381 Descending Miami Center
Sat 01:13:50 AM 26.1836 -80.5678 95° East 237 273 2,200 -305 Descending Miami Center
Sat 01:14:01 AM 26.1881 -80.5589 61° Northeast 245 282 2,100  Descending Miami Center
Sat 01:14:49 AM 26.1772 -80.4936 100° East 233 268 2,200  Climbing Miami Center
Sat 01:14:59 AM 26.1814 -80.4892 44° Northeast 235 270 2,100  Descending Miami Center
Sat 01:15:50 AM 26.1706 -80.4264 101° East 225 259 2,200 54 Climbing Miami Center
Sat 01:16:50 AM 26.1764 -80.3617 84° East 202 232 2,200 -50 Level Miami Center
Sat 01:17:50 AM 26.1839 -80.3064 81° East 158 182 2,100 -400 Descending Miami Center
Sat 01:18:50 AM 26.1869 -80.2647 85° East 145 167 1,400 -634 Descending Miami Center
Sat 01:19:53 AM 26.1919 -80.2256 82° East 116 133 800 -571 Descending Miami Center
Sat 01:21:00 AM 26.1833 -80.1667 90° East  Level FlightAware
Sat 01:28:00 AM 26.1973 -80.1707 90° East  Level Estimated
Sat 01:29:00 AM 26.1973 -80.1707 90° East  Level Estimated

Login

Don't have an account? Register now (free) for customized features, flight alerts, and more!